createdAt,value
2023-01-08T00:01:13.580Z,8.60
2023-01-08T00:03:41.513Z,9.43
2023-01-08T00:06:12.631Z,12.07
2023-01-08T00:08:40.049Z,9.37
2023-01-08T00:11:07.805Z,9.57
2023-01-08T00:13:35.150Z,8.70
2023-01-08T00:16:06.888Z,8.60
2023-01-08T00:18:34.391Z,8.40
2023-01-08T00:21:02.416Z,7.83
2023-01-08T00:23:29.805Z,7.27
2023-01-08T00:25:56.987Z,9.27
2023-01-08T00:28:24.276Z,8.93
2023-01-08T00:30:51.714Z,7.70
2023-01-08T00:33:19.053Z,8.23
2023-01-08T00:35:46.422Z,7.63
2023-01-08T00:38:13.748Z,9.33
2023-01-08T00:40:41.007Z,8.70
2023-01-08T00:43:08.421Z,7.90
2023-01-08T00:45:35.786Z,9.77
2023-01-08T00:48:02.987Z,7.43
2023-01-08T00:50:30.179Z,7.00
2023-01-08T00:52:57.696Z,7.60
2023-01-08T00:55:24.874Z,9.00
2023-01-08T00:57:52.043Z,7.43
2023-01-08T01:00:19.204Z,6.37
2023-01-08T01:02:46.478Z,6.20
2023-01-08T01:05:17.494Z,7.57
2023-01-08T01:07:44.852Z,6.73
2023-01-08T01:10:14.412Z,6.33
2023-01-08T01:12:41.941Z,5.23
2023-01-08T01:15:12.410Z,6.30
2023-01-08T01:17:41.203Z,5.10
2023-01-08T01:20:10.655Z,4.10
2023-01-08T01:22:38.695Z,4.30
2023-01-08T01:25:06.788Z,4.97
2023-01-08T01:27:33.948Z,4.47
2023-01-08T01:30:01.567Z,5.27
2023-01-08T01:32:29.033Z,4.63
2023-01-08T01:34:56.210Z,4.33
2023-01-08T01:37:23.432Z,3.87
2023-01-08T01:39:50.673Z,3.83
2023-01-08T01:42:37.755Z,4.23
2023-01-08T01:45:17.076Z,4.03
2023-01-08T01:47:47.871Z,3.80
2023-01-08T01:50:20.060Z,4.57
2023-01-08T01:53:22.289Z,3.43
2023-01-08T01:55:50.467Z,4.30
2023-01-08T01:58:23.939Z,4.60
2023-01-08T02:00:53.379Z,4.80
2023-01-08T02:03:26.882Z,3.97
2023-01-08T02:06:15.477Z,3.80
2023-01-08T02:08:48.372Z,4.60
2023-01-08T02:11:21.740Z,3.60
2023-01-08T02:14:00.142Z,4.27
2023-01-08T02:16:50.310Z,4.07
2023-01-08T02:19:32.151Z,4.30
2023-01-08T02:22:23.035Z,4.00
2023-01-08T02:25:06.393Z,4.07
2023-01-08T02:27:35.779Z,3.93
2023-01-08T02:30:04.451Z,4.40
2023-01-08T02:32:38.395Z,3.40
2023-01-08T02:35:07.155Z,3.50
2023-01-08T02:37:35.782Z,5.37
2023-01-08T02:40:39.472Z,4.07
2023-01-08T02:43:14.030Z,5.57
2023-01-08T02:45:48.916Z,3.97
2023-01-08T02:48:57.834Z,4.67
2023-01-08T02:51:33.862Z,4.40
2023-01-08T02:54:08.919Z,5.47
2023-01-08T02:56:39.993Z,5.43
2023-01-08T02:59:08.233Z,5.30
2023-01-08T03:01:36.750Z,4.17
2023-01-08T03:04:26.296Z,4.13
2023-01-08T03:06:53.680Z,4.60
2023-01-08T03:09:20.961Z,4.33
2023-01-08T03:12:00.609Z,4.63
2023-01-08T03:14:36.088Z,4.27
2023-01-08T03:17:15.663Z,3.97
2023-01-08T03:19:46.781Z,4.30
2023-01-08T03:22:17.248Z,3.97
2023-01-08T03:24:48.335Z,3.77
2023-01-08T03:27:21.086Z,4.43
2023-01-08T03:29:51.742Z,3.27
2023-01-08T03:32:20.700Z,3.70
2023-01-08T03:34:50.430Z,3.67
2023-01-08T03:37:21.777Z,3.53
2023-01-08T03:40:04.097Z,4.00
2023-01-08T03:42:32.490Z,2.90
2023-01-08T03:45:00.583Z,3.10
2023-01-08T03:47:30.576Z,2.50
2023-01-08T03:50:01.992Z,3.87
2023-01-08T03:52:32.940Z,2.80
2023-01-08T03:55:00.085Z,3.70
2023-01-08T03:57:27.257Z,2.60
2023-01-08T03:59:54.536Z,2.90
2023-01-08T04:02:21.844Z,2.70
2023-01-08T04:04:49.175Z,3.30
2023-01-08T04:07:16.547Z,2.40
2023-01-08T04:09:43.708Z,2.57
2023-01-08T04:12:10.895Z,2.60
2023-01-08T04:14:38.180Z,3.70
2023-01-08T04:17:05.338Z,4.13
2023-01-08T04:19:32.502Z,2.47
2023-01-08T04:21:59.684Z,3.00
2023-01-08T04:24:26.882Z,2.90
2023-01-08T04:26:54.071Z,2.77
2023-01-08T04:29:21.317Z,2.90
2023-01-08T04:31:48.498Z,2.20
2023-01-08T04:34:15.681Z,2.37
2023-01-08T04:36:42.919Z,2.40
2023-01-08T04:39:11.308Z,3.00
2023-01-08T04:41:38.491Z,2.30
2023-01-08T04:44:05.874Z,2.10
2023-01-08T04:46:33.053Z,2.43
2023-01-08T04:49:00.291Z,2.67
2023-01-08T04:51:27.447Z,2.40
2023-01-08T04:53:54.699Z,2.87
2023-01-08T04:56:21.867Z,2.20
2023-01-08T04:58:49.164Z,1.93
2023-01-08T05:01:20.616Z,3.03
2023-01-08T05:03:48.295Z,2.47
2023-01-08T05:06:15.512Z,2.50
2023-01-08T05:08:42.698Z,2.30
2023-01-08T05:11:10.123Z,3.00
2023-01-08T05:13:37.336Z,2.23
2023-01-08T05:16:04.933Z,2.80
2023-01-08T05:18:32.222Z,2.60
2023-01-08T05:21:04.125Z,2.40
2023-01-08T05:23:32.625Z,3.40
2023-01-08T05:26:00.941Z,2.53
2023-01-08T05:28:28.583Z,2.23
2023-01-08T05:30:55.946Z,2.80
2023-01-08T05:33:23.849Z,1.90
2023-01-08T05:35:51.462Z,1.90
2023-01-08T05:38:18.759Z,3.07
2023-01-08T05:40:45.976Z,2.00
2023-01-08T05:43:13.346Z,2.70
2023-01-08T05:45:40.670Z,2.23
2023-01-08T05:48:07.992Z,2.60
2023-01-08T05:50:35.725Z,2.30
2023-01-08T05:53:07.402Z,2.30
2023-01-08T05:55:35.292Z,2.80
2023-01-08T05:58:04.033Z,1.90
2023-01-08T06:00:32.303Z,2.30
2023-01-08T06:02:59.598Z,2.10
2023-01-08T06:05:27.237Z,2.20
2023-01-08T06:07:54.410Z,2.10
2023-01-08T06:10:21.582Z,1.60
2023-01-08T06:12:49.283Z,2.03
2023-01-08T06:15:16.746Z,1.90
2023-01-08T06:17:44.444Z,2.20
2023-01-08T06:20:11.992Z,1.80
2023-01-08T06:22:39.163Z,2.30
2023-01-08T06:25:06.729Z,2.90
2023-01-08T06:27:33.936Z,1.73
2023-01-08T06:30:01.108Z,2.87
2023-01-08T06:32:28.295Z,3.30
2023-01-08T06:34:55.463Z,2.10
2023-01-08T06:37:22.633Z,2.10
2023-01-08T06:39:49.782Z,2.10
2023-01-08T06:42:16.996Z,2.23
2023-01-08T06:44:44.206Z,3.60
2023-01-08T06:47:11.468Z,2.20
2023-01-08T06:49:38.702Z,2.10
2023-01-08T06:52:05.999Z,2.27
2023-01-08T06:54:33.157Z,2.00
2023-01-08T06:57:00.327Z,2.30
2023-01-08T06:59:27.564Z,2.30
2023-01-08T07:01:54.823Z,3.30
2023-01-08T07:04:22.229Z,2.13
2023-01-08T07:06:49.440Z,2.00
2023-01-08T07:09:16.681Z,2.97
2023-01-08T07:11:43.926Z,2.20
2023-01-08T07:14:11.431Z,2.30
2023-01-08T07:16:38.683Z,2.37
2023-01-08T07:19:05.979Z,2.30
2023-01-08T07:21:33.201Z,2.27
2023-01-08T07:24:00.404Z,2.07
2023-01-08T07:26:27.760Z,3.20
2023-01-08T07:28:55.051Z,2.63
2023-01-08T07:31:22.366Z,3.33
2023-01-08T07:33:50.401Z,4.93
2023-01-08T07:36:22.225Z,5.13
2023-01-08T07:38:49.845Z,5.60
2023-01-08T07:41:17.866Z,3.47
2023-01-08T07:43:47.832Z,3.73
2023-01-08T07:46:15.684Z,3.00
2023-01-08T07:48:42.955Z,3.07
2023-01-08T07:51:10.566Z,3.20
2023-01-08T07:53:38.178Z,2.50
2023-01-08T07:56:07.825Z,2.80
2023-01-08T07:58:35.404Z,4.00
2023-01-08T08:01:03.573Z,4.47
2023-01-08T08:03:30.835Z,2.60
2023-01-08T08:06:00.138Z,2.20
2023-01-08T08:08:27.640Z,3.60
2023-01-08T08:10:54.862Z,3.27
2023-01-08T08:13:22.042Z,2.77
2023-01-08T08:15:49.379Z,3.03
2023-01-08T08:18:16.612Z,2.80
2023-01-08T08:20:43.827Z,4.50
2023-01-08T08:23:15.023Z,3.43
2023-01-08T08:25:42.832Z,3.80
2023-01-08T08:28:12.264Z,4.83
2023-01-08T08:30:42.144Z,3.73
2023-01-08T08:33:10.466Z,3.73
2023-01-08T08:35:37.998Z,4.93
2023-01-08T08:38:05.364Z,3.90
2023-01-08T08:40:32.829Z,4.33
2023-01-08T08:43:02.651Z,4.10
2023-01-08T08:45:29.969Z,5.47
2023-01-08T08:47:57.227Z,3.87
2023-01-08T08:50:24.812Z,4.80
2023-01-08T08:52:52.043Z,5.67
2023-01-08T08:55:19.356Z,5.50
2023-01-08T08:57:47.295Z,4.57
2023-01-08T09:00:15.526Z,5.67
2023-01-08T09:02:43.209Z,5.17
2023-01-08T09:05:11.829Z,5.40
2023-01-08T09:07:39.134Z,4.00
2023-01-08T09:10:07.014Z,4.30
2023-01-08T09:12:34.283Z,4.47
2023-01-08T09:15:01.467Z,5.63
2023-01-08T09:17:28.719Z,4.30
2023-01-08T09:19:55.904Z,6.10
2023-01-08T09:22:23.190Z,5.80
2023-01-08T09:24:50.503Z,5.03
2023-01-08T09:27:17.719Z,4.17
2023-01-08T09:29:44.882Z,5.57
2023-01-08T09:32:12.477Z,4.67
2023-01-08T09:34:39.717Z,5.03
2023-01-08T09:37:07.209Z,6.50
2023-01-08T09:39:35.833Z,5.63
2023-01-08T09:42:05.657Z,5.07
2023-01-08T09:44:41.884Z,4.53
2023-01-08T09:47:42.626Z,6.23
2023-01-08T09:50:14.308Z,5.30
2023-01-08T09:52:43.614Z,4.77
2023-01-08T09:55:15.868Z,5.50
2023-01-08T09:57:44.363Z,5.33
2023-01-08T10:00:28.912Z,4.67
2023-01-08T10:02:57.788Z,5.00
2023-01-08T10:05:26.820Z,4.93
2023-01-08T10:07:54.073Z,5.03
2023-01-08T10:10:29.247Z,4.73
2023-01-08T10:12:56.577Z,3.87
2023-01-08T10:15:24.278Z,4.37
2023-01-08T10:18:11.970Z,4.13
2023-01-08T10:20:39.341Z,4.83
2023-01-08T10:23:18.159Z,4.23
2023-01-08T10:25:53.178Z,2.50
2023-01-08T10:28:29.063Z,2.57
2023-01-08T10:31:16.843Z,3.87
2023-01-08T10:33:49.537Z,3.83
2023-01-08T10:36:24.083Z,3.47
2023-01-08T10:38:59.124Z,3.03
2023-01-08T10:41:27.117Z,2.80
2023-01-08T10:44:06.380Z,2.63
2023-01-08T10:46:44.522Z,4.20
2023-01-08T10:49:21.023Z,4.67
2023-01-08T10:51:53.423Z,2.50
2023-01-08T10:54:46.960Z,5.83
2023-01-08T10:57:22.754Z,4.37
2023-01-08T10:59:50.112Z,3.70
2023-01-08T11:02:39.005Z,2.73
2023-01-08T11:05:10.791Z,5.23
2023-01-08T11:07:40.138Z,3.17
2023-01-08T11:10:22.111Z,4.33
2023-01-08T11:13:02.281Z,3.00
2023-01-08T11:15:33.094Z,3.43
2023-01-08T11:18:06.397Z,2.57
2023-01-08T11:20:34.932Z,2.97
2023-01-08T11:23:26.654Z,4.67
2023-01-08T11:26:17.003Z,5.03
2023-01-08T11:28:56.224Z,3.33
2023-01-08T11:31:39.264Z,2.60
2023-01-08T11:34:18.449Z,3.50
2023-01-08T11:36:59.460Z,2.87
2023-01-08T11:39:26.684Z,4.10
2023-01-08T11:42:15.059Z,3.57
2023-01-08T11:45:20.529Z,4.40
2023-01-08T11:47:59.245Z,4.33
2023-01-08T11:50:48.646Z,3.50
2023-01-08T11:53:31.195Z,4.40
2023-01-08T11:56:35.955Z,3.30
2023-01-08T11:59:06.105Z,3.97
2023-01-08T12:02:15.639Z,2.90
2023-01-08T12:05:03.072Z,5.07
2023-01-08T12:07:50.010Z,3.87
2023-01-08T12:10:32.249Z,80.90
2023-01-08T12:13:18.215Z,54.37
2023-01-08T12:15:48.313Z,27.77
2023-01-08T12:18:28.647Z,13.80
2023-01-08T12:21:26.210Z,4.73
2023-01-08T12:23:59.274Z,3.40
2023-01-08T12:26:55.898Z,5.20
2023-01-08T12:29:52.889Z,2.40
2023-01-08T12:32:46.286Z,7.20
2023-01-08T12:35:28.016Z,4.73
2023-01-08T12:38:04.855Z,3.23
2023-01-08T12:40:56.185Z,5.43
2023-01-08T12:43:29.258Z,7.97
2023-01-08T12:46:00.615Z,3.57
2023-01-08T12:48:32.201Z,2.70
2023-01-08T12:51:18.015Z,3.87
2023-01-08T12:54:09.907Z,2.37
2023-01-08T12:56:55.144Z,2.70
2023-01-08T12:59:31.464Z,2.60
2023-01-08T13:02:26.347Z,2.50
2023-01-08T13:04:53.745Z,3.07
2023-01-08T13:07:45.117Z,2.93
2023-01-08T13:10:41.383Z,2.83
2023-01-08T13:13:30.856Z,3.57
2023-01-08T13:16:08.179Z,4.20
2023-01-08T13:18:35.900Z,3.77
2023-01-08T13:21:04.867Z,3.93
2023-01-08T13:23:38.174Z,4.13
2023-01-08T13:26:07.664Z,4.90
2023-01-08T13:28:37.798Z,3.83
2023-01-08T13:31:21.651Z,3.43
2023-01-08T13:33:52.371Z,3.97
2023-01-08T13:36:21.317Z,3.53
2023-01-08T13:39:23.097Z,4.37
2023-01-08T13:42:19.542Z,4.23
2023-01-08T13:44:52.725Z,4.03
2023-01-08T13:47:36.943Z,3.37
2023-01-08T13:50:18.495Z,5.33
2023-01-08T13:53:05.061Z,6.07
2023-01-08T13:55:35.517Z,5.00
2023-01-08T13:58:19.173Z,9.87
2023-01-08T14:00:49.444Z,4.97
2023-01-08T14:03:32.798Z,4.47
2023-01-08T14:06:21.986Z,3.50
2023-01-08T14:08:56.844Z,3.40
2023-01-08T14:11:38.926Z,5.87
2023-01-08T14:14:12.009Z,3.63
2023-01-08T14:16:40.846Z,3.97
2023-01-08T14:19:08.761Z,3.67
2023-01-08T14:21:35.964Z,3.87
2023-01-08T14:24:04.325Z,3.77
2023-01-08T14:26:38.727Z,3.93
2023-01-08T14:29:18.793Z,6.97
2023-01-08T14:31:47.820Z,6.00
2023-01-08T14:34:16.337Z,5.33
2023-01-08T14:36:44.165Z,5.80
2023-01-08T14:39:20.331Z,5.27
2023-01-08T14:42:07.421Z,5.70
2023-01-08T14:44:39.221Z,5.37
2023-01-08T14:47:18.746Z,5.00
2023-01-08T14:49:52.656Z,4.80
2023-01-08T14:52:21.355Z,6.13
2023-01-08T14:54:53.132Z,6.40
2023-01-08T14:57:22.926Z,9.87
2023-01-08T14:59:57.267Z,7.87
2023-01-08T15:02:36.757Z,6.30
2023-01-08T15:05:26.924Z,8.00
2023-01-08T15:08:03.233Z,7.87
2023-01-08T15:10:37.071Z,6.20
2023-01-08T15:13:07.524Z,7.33
2023-01-08T15:15:40.731Z,5.70
2023-01-08T15:18:11.719Z,7.40
2023-01-08T15:20:39.011Z,6.47
2023-01-08T15:23:06.245Z,6.73
2023-01-08T15:25:33.434Z,6.23
2023-01-08T15:28:03.069Z,5.63
2023-01-08T15:30:36.799Z,6.50
2023-01-08T15:33:20.164Z,8.67
2023-01-08T15:35:48.032Z,9.67
2023-01-08T15:38:16.412Z,16.17
2023-01-08T15:40:44.773Z,16.03
2023-01-08T15:43:17.111Z,13.43
2023-01-08T15:45:48.142Z,9.17
2023-01-08T15:48:15.668Z,14.23
2023-01-08T15:50:44.678Z,8.53
2023-01-08T15:53:22.169Z,11.63
2023-01-08T15:55:49.438Z,12.27
2023-01-08T15:58:17.056Z,11.03
2023-01-08T16:00:45.814Z,13.60
2023-01-08T16:03:14.608Z,9.93
2023-01-08T16:05:41.984Z,11.63
2023-01-08T16:08:10.547Z,15.23
2023-01-08T16:10:38.181Z,11.40
2023-01-08T16:13:06.124Z,11.20
2023-01-08T16:15:33.352Z,10.63
2023-01-08T16:18:00.647Z,13.40
2023-01-08T16:20:27.896Z,11.47
2023-01-08T16:22:56.554Z,12.30
2023-01-08T16:25:24.697Z,9.47
2023-01-08T16:27:52.111Z,12.20
2023-01-08T16:30:19.760Z,15.30
2023-01-08T16:32:52.107Z,8.93
2023-01-08T16:35:20.669Z,7.93
2023-01-08T16:37:48.439Z,11.97
2023-01-08T16:40:16.225Z,14.90
2023-01-08T16:42:43.393Z,11.97
2023-01-08T16:45:10.759Z,14.20
2023-01-08T16:47:39.338Z,15.27
2023-01-08T16:50:07.714Z,12.57
2023-01-08T16:52:36.705Z,10.40
2023-01-08T16:55:04.507Z,8.90
2023-01-08T16:57:31.712Z,12.47
2023-01-08T16:59:59.070Z,13.37
2023-01-08T17:02:26.437Z,14.43
2023-01-08T17:04:53.582Z,13.17
2023-01-08T17:07:20.782Z,28.73
2023-01-08T17:09:47.973Z,29.13
2023-01-08T17:12:22.185Z,17.40
2023-01-08T17:14:50.739Z,16.87
2023-01-08T17:17:18.019Z,12.50
2023-01-08T17:19:45.246Z,12.43
2023-01-08T17:22:12.471Z,13.27
2023-01-08T17:24:39.813Z,11.80
2023-01-08T17:27:07.071Z,16.33
2023-01-08T17:29:34.299Z,22.77
2023-01-08T17:32:01.456Z,20.40
2023-01-08T17:34:28.634Z,20.03
2023-01-08T17:36:55.866Z,18.20
2023-01-08T17:39:23.061Z,27.23
2023-01-08T17:42:08.911Z,28.30
2023-01-08T17:44:36.159Z,39.90
2023-01-08T17:47:03.621Z,29.93
2023-01-08T17:49:31.048Z,28.37
2023-01-08T17:51:58.363Z,46.37
2023-01-08T17:54:25.682Z,45.87
2023-01-08T17:56:53.596Z,51.13
2023-01-08T17:59:21.611Z,51.83
2023-01-08T18:01:49.588Z,36.03
2023-01-08T18:04:16.929Z,21.97
2023-01-08T18:06:45.079Z,17.07
2023-01-08T18:09:12.597Z,32.90
2023-01-08T18:11:41.404Z,18.60
2023-01-08T18:14:11.861Z,20.50
2023-01-08T18:16:45.202Z,19.13
2023-01-08T18:19:15.739Z,29.27
2023-01-08T18:21:44.216Z,16.60
2023-01-08T18:24:11.709Z,20.83
2023-01-08T18:26:39.195Z,18.00
2023-01-08T18:29:06.410Z,19.63
2023-01-08T18:31:33.880Z,17.10
2023-01-08T18:34:03.252Z,19.33
2023-01-08T18:36:30.498Z,16.93
2023-01-08T18:39:01.987Z,17.60
2023-01-08T18:41:48.832Z,26.13
2023-01-08T18:44:16.089Z,22.57
2023-01-08T18:46:43.277Z,20.73
2023-01-08T18:49:11.264Z,18.70
2023-01-08T18:51:38.459Z,19.27
2023-01-08T18:54:08.178Z,17.53
2023-01-08T18:56:36.577Z,18.93
2023-01-08T18:59:05.396Z,16.27
2023-01-08T19:01:34.100Z,18.67
2023-01-08T19:04:01.904Z,16.97
2023-01-08T19:06:29.302Z,52.23
2023-01-08T19:08:58.266Z,22.33
2023-01-08T19:11:26.083Z,15.47
2023-01-08T19:13:57.582Z,19.50
2023-01-08T19:16:25.708Z,21.00
2023-01-08T19:18:54.004Z,17.77
2023-01-08T19:21:21.572Z,13.87
2023-01-08T19:23:49.069Z,21.00
2023-01-08T19:26:16.901Z,19.23
2023-01-08T19:28:44.367Z,20.27
2023-01-08T19:31:14.726Z,27.57
2023-01-08T19:33:42.810Z,24.37
2023-01-08T19:36:15.936Z,23.93
2023-01-08T19:38:44.298Z,24.37
2023-01-08T19:41:31.079Z,24.57
2023-01-08T19:43:59.072Z,25.20
2023-01-08T19:46:26.987Z,22.63
2023-01-08T19:48:57.793Z,14.73
2023-01-08T19:51:26.359Z,12.90
2023-01-08T19:53:55.320Z,14.07
2023-01-08T19:56:23.036Z,15.93
2023-01-08T19:58:50.822Z,16.90
2023-01-08T20:01:23.480Z,16.10
2023-01-08T20:03:51.459Z,15.13
2023-01-08T20:12:12.269Z,16.47
2023-01-08T20:14:39.568Z,15.70
2023-01-08T20:17:06.770Z,16.20
2023-01-08T20:19:34.690Z,17.47
2023-01-08T20:22:02.029Z,15.47
2023-01-08T20:24:30.357Z,17.60
2023-01-08T20:26:57.737Z,17.83
2023-01-08T20:37:02.991Z,15.47
2023-01-08T20:39:29.547Z,15.53
2023-01-08T20:42:04.253Z,14.10
2023-01-08T20:44:33.367Z,16.00
2023-01-08T20:47:01.800Z,16.13
2023-01-08T20:49:29.503Z,18.00
2023-01-08T20:51:59.460Z,20.03
2023-01-08T20:54:29.457Z,20.00
2023-01-08T20:56:57.880Z,20.30
2023-01-08T20:59:26.061Z,18.90
2023-01-08T21:01:53.410Z,17.20
2023-01-08T21:04:21.229Z,16.60
2023-01-08T21:06:48.979Z,14.90
2023-01-08T21:09:17.726Z,15.87
2023-01-08T21:11:46.315Z,16.80
2023-01-08T21:14:14.109Z,17.10
2023-01-08T21:16:41.384Z,18.13
2023-01-08T21:19:11.665Z,19.47
2023-01-08T21:21:40.652Z,15.67
2023-01-08T21:24:10.786Z,16.30
2023-01-08T21:26:39.036Z,16.03
2023-01-08T21:29:07.747Z,14.60
2023-01-08T21:31:36.116Z,13.20
2023-01-08T21:34:07.880Z,14.17
2023-01-08T21:36:35.086Z,12.77
2023-01-08T21:39:02.731Z,12.23
2023-01-08T21:41:49.927Z,12.50
2023-01-08T21:44:38.459Z,11.33
2023-01-08T21:47:12.268Z,11.57
2023-01-08T21:49:39.844Z,11.17
2023-01-08T21:52:26.303Z,12.00
2023-01-08T21:54:54.921Z,10.33
2023-01-08T21:57:22.147Z,10.60
2023-01-08T21:59:51.574Z,10.60
2023-01-08T22:02:20.814Z,10.73
2023-01-08T22:04:53.490Z,10.57
2023-01-08T22:07:20.712Z,10.10
2023-01-08T22:09:47.963Z,9.90
2023-01-08T22:12:16.509Z,10.43
2023-01-08T22:14:43.925Z,10.37
2023-01-08T22:17:11.199Z,9.50
2023-01-08T22:19:39.069Z,9.23
2023-01-08T22:22:10.284Z,9.07
2023-01-08T22:24:39.372Z,9.23
2023-01-08T22:27:07.961Z,8.37
2023-01-08T22:29:36.234Z,8.73
2023-01-08T22:32:04.391Z,8.83
2023-01-08T22:34:32.845Z,9.23
2023-01-08T22:37:00.499Z,9.33
2023-01-08T22:39:27.761Z,8.93
2023-01-08T22:41:55.065Z,10.10
2023-01-08T22:44:22.361Z,10.23
2023-01-08T22:46:49.863Z,8.07
2023-01-08T22:49:17.139Z,7.70
2023-01-08T22:51:44.646Z,7.60
2023-01-08T22:54:13.101Z,6.80
2023-01-08T22:56:40.380Z,6.47
2023-01-08T22:59:07.738Z,7.20
2023-01-08T23:01:35.354Z,8.00
2023-01-08T23:04:02.885Z,6.70
2023-01-08T23:06:31.427Z,6.13
2023-01-08T23:08:59.894Z,17.67
2023-01-08T23:11:28.118Z,13.23
2023-01-08T23:13:55.731Z,7.83
2023-01-08T23:16:25.235Z,6.93
2023-01-08T23:18:54.392Z,7.23
2023-01-08T23:21:23.748Z,8.13
2023-01-08T23:23:51.636Z,7.40
2023-01-08T23:26:22.243Z,8.67
2023-01-08T23:28:51.519Z,8.03
2023-01-08T23:31:27.185Z,8.03
2023-01-08T23:33:54.661Z,7.50
2023-01-08T23:36:23.121Z,7.93
2023-01-08T23:38:55.814Z,7.70
2023-01-08T23:41:32.016Z,7.73
2023-01-08T23:44:02.903Z,7.27
2023-01-08T23:46:30.143Z,7.17
2023-01-08T23:48:57.448Z,7.47
2023-01-08T23:51:25.069Z,6.97
2023-01-08T23:53:52.652Z,7.67
2023-01-08T23:56:20.804Z,8.23
2023-01-08T23:58:49.112Z,7.73
